createdAt,value
2018-03-22T00:00:39.305Z,-1.80
2018-03-22T00:03:06.780Z,-1.90
2018-03-22T00:05:34.253Z,-1.90
2018-03-22T00:08:02.487Z,-1.90
2018-03-22T00:10:30.062Z,-1.90
2018-03-22T00:12:57.534Z,-1.90
2018-03-22T00:15:25.787Z,-1.90
2018-03-22T00:17:53.239Z,-1.90
2018-03-22T00:20:20.706Z,-1.90
2018-03-22T00:22:48.160Z,-1.80
2018-03-22T00:25:15.630Z,-1.80
2018-03-22T00:27:43.090Z,-1.90
2018-03-22T00:30:11.350Z,-1.90
2018-03-22T00:32:38.912Z,-1.90
2018-03-22T00:35:06.385Z,-1.90
2018-03-22T00:37:34.621Z,-1.90
2018-03-22T00:40:02.210Z,-1.90
2018-03-22T00:42:29.663Z,-1.90
2018-03-22T00:44:57.137Z,-1.90
2018-03-22T00:47:25.382Z,-1.90
2018-03-22T00:49:52.861Z,-1.90
2018-03-22T00:52:20.320Z,-1.90
2018-03-22T00:54:47.785Z,-1.90
2018-03-22T00:57:16.013Z,-1.90
2018-03-22T00:59:43.457Z,-1.90
2018-03-22T01:02:10.926Z,-1.90
2018-03-22T01:04:38.379Z,-1.80
2018-03-22T01:07:05.850Z,-1.90
2018-03-22T01:09:33.305Z,-1.90
2018-03-22T01:12:00.779Z,-1.80
2018-03-22T01:14:28.244Z,-1.80
2018-03-22T01:16:55.710Z,-1.90
2018-03-22T01:19:23.172Z,-1.90
2018-03-22T01:21:50.630Z,-1.90
2018-03-22T01:24:18.867Z,-1.90
2018-03-22T01:26:46.326Z,-1.90
2018-03-22T01:29:13.798Z,-1.90
2018-03-22T01:31:42.029Z,-2.00
2018-03-22T01:34:09.476Z,-2.00
2018-03-22T01:36:36.940Z,-2.00
2018-03-22T01:39:04.405Z,-2.00
2018-03-22T01:41:31.852Z,-2.10
2018-03-22T01:43:59.317Z,-2.10
2018-03-22T01:46:26.816Z,-2.10
2018-03-22T01:48:54.274Z,-2.10
2018-03-22T01:51:21.734Z,-2.10
2018-03-22T01:53:59.047Z,-2.10
2018-03-22T01:56:27.276Z,-2.10
2018-03-22T01:58:54.734Z,-2.20
2018-03-22T02:01:22.191Z,-2.20
2018-03-22T02:03:49.655Z,-2.30
2018-03-22T02:06:17.125Z,-2.30
2018-03-22T02:08:44.593Z,-2.30
2018-03-22T02:11:12.141Z,-2.30
2018-03-22T02:13:39.607Z,-2.30
2018-03-22T02:16:07.071Z,-2.30
2018-03-22T02:18:34.536Z,-2.30
2018-03-22T02:21:02.008Z,-2.40
2018-03-22T02:23:30.242Z,-2.40
2018-03-22T02:25:57.730Z,-2.40
2018-03-22T02:28:25.184Z,-2.50
2018-03-22T02:30:53.430Z,-2.40
2018-03-22T02:33:20.907Z,-2.40
2018-03-22T02:35:49.866Z,-2.40
2018-03-22T02:38:17.339Z,-2.40
2018-03-22T02:40:44.799Z,-2.50
2018-03-22T02:43:12.255Z,-2.60
2018-03-22T02:45:39.716Z,-2.50
2018-03-22T02:48:07.174Z,-2.50
2018-03-22T02:50:34.637Z,-2.50
2018-03-22T02:53:03.626Z,-2.50
2018-03-22T02:55:31.081Z,-2.50
2018-03-22T02:57:58.538Z,-2.50
2018-03-22T03:00:27.016Z,-2.60
2018-03-22T03:02:54.451Z,-2.70
2018-03-22T03:05:21.964Z,-2.60
2018-03-22T03:07:50.190Z,-2.60
2018-03-22T03:10:17.764Z,-2.60
2018-03-22T03:12:45.211Z,-2.60
2018-03-22T03:15:12.678Z,-2.60
2018-03-22T03:17:40.140Z,-2.60
2018-03-22T03:20:07.601Z,-2.70
2018-03-22T03:22:35.036Z,-2.60
2018-03-22T03:25:02.511Z,-2.60
2018-03-22T03:27:29.963Z,-2.70
2018-03-22T03:29:57.412Z,-2.60
2018-03-22T03:32:24.861Z,-2.70
2018-03-22T03:34:52.321Z,-2.90
2018-03-22T03:37:19.798Z,-2.80
2018-03-22T03:39:47.374Z,-2.80
2018-03-22T03:42:14.825Z,-2.70
2018-03-22T03:44:42.292Z,-2.70
2018-03-22T03:47:10.565Z,-2.60
2018-03-22T03:49:38.004Z,-2.60
2018-03-22T03:52:05.455Z,-2.60
2018-03-22T03:54:32.916Z,-2.60
2018-03-22T03:57:00.377Z,-2.70
2018-03-22T03:59:27.932Z,-2.70
2018-03-22T04:01:55.413Z,-2.60
2018-03-22T04:04:22.894Z,-2.60
2018-03-22T04:06:50.348Z,-2.70
2018-03-22T04:09:18.587Z,-2.70
2018-03-22T04:11:46.066Z,-2.80
2018-03-22T04:14:13.518Z,-2.70
2018-03-22T04:16:40.977Z,-2.70
2018-03-22T04:19:08.442Z,-2.80
2018-03-22T04:21:36.678Z,-2.80
2018-03-22T04:24:04.145Z,-2.80
2018-03-22T04:26:31.618Z,-2.80
2018-03-22T04:28:59.098Z,-2.80
2018-03-22T04:31:27.332Z,-2.80
2018-03-22T04:33:54.789Z,-2.90
2018-03-22T04:36:22.250Z,-2.80
2018-03-22T04:38:49.720Z,-2.80
2018-03-22T04:41:17.194Z,-2.80
2018-03-22T04:43:45.410Z,-2.70
2018-03-22T04:46:12.879Z,-2.80
2018-03-22T04:48:40.323Z,-2.60
2018-03-22T04:51:07.796Z,-2.60
2018-03-22T04:53:35.239Z,-2.70
2018-03-22T04:56:02.704Z,-2.80
2018-03-22T04:58:30.153Z,-2.80
2018-03-22T05:00:57.600Z,-2.80
2018-03-22T05:03:25.053Z,-2.80
2018-03-22T05:05:52.513Z,-2.90
2018-03-22T05:08:19.960Z,-2.90
2018-03-22T05:10:47.425Z,-2.90
2018-03-22T05:13:14.878Z,-2.80
2018-03-22T05:15:42.331Z,-2.80
2018-03-22T05:18:09.796Z,-2.70
2018-03-22T05:20:37.248Z,-2.60
2018-03-22T05:23:04.700Z,-2.60
2018-03-22T05:25:32.198Z,-2.60
2018-03-22T05:27:59.673Z,-2.70
2018-03-22T05:30:27.131Z,-2.70
2018-03-22T05:32:54.584Z,-2.70
2018-03-22T05:35:22.056Z,-2.60
2018-03-22T05:37:49.543Z,-2.60
2018-03-22T05:40:17.760Z,-2.60
2018-03-22T05:42:45.230Z,-2.60
2018-03-22T05:45:12.679Z,-2.50
2018-03-22T05:47:40.153Z,-2.50
2018-03-22T05:50:09.121Z,-2.60
2018-03-22T05:52:36.585Z,-2.60
2018-03-22T05:55:04.061Z,-2.50
2018-03-22T05:57:33.040Z,-2.40
2018-03-22T06:00:00.493Z,-2.40
2018-03-22T06:02:27.973Z,-2.40
2018-03-22T06:04:55.444Z,-2.30
2018-03-22T06:07:22.916Z,-2.20
2018-03-22T06:09:51.147Z,-2.20
2018-03-22T06:12:18.623Z,-2.20
2018-03-22T06:14:46.096Z,-2.30
2018-03-22T06:17:14.326Z,-2.20
2018-03-22T06:19:41.802Z,-2.20
2018-03-22T06:22:09.271Z,-2.10
2018-03-22T06:24:36.727Z,-2.00
2018-03-22T06:27:05.732Z,-1.80
2018-03-22T06:29:33.973Z,-1.70
2018-03-22T06:32:01.424Z,-1.70
2018-03-22T06:34:28.901Z,-1.60
2018-03-22T06:36:56.367Z,-1.40
2018-03-22T06:39:23.826Z,-1.30
2018-03-22T06:41:51.389Z,-1.20
2018-03-22T06:44:27.738Z,-1.10
2018-03-22T06:46:55.202Z,-1.10
2018-03-22T06:49:22.673Z,-1.10
2018-03-22T06:51:50.131Z,-1.00
2018-03-22T06:54:18.357Z,-1.00
2018-03-22T06:56:45.817Z,-1.00
2018-03-22T06:59:14.052Z,-0.80
2018-03-22T07:01:42.265Z,-0.80
2018-03-22T07:04:09.734Z,-0.80
2018-03-22T07:06:37.196Z,-0.70
2018-03-22T07:09:05.426Z,-0.70
2018-03-22T07:11:32.890Z,-0.60
2018-03-22T07:14:00.356Z,-0.50
2018-03-22T07:16:27.815Z,-0.40
2018-03-22T07:18:55.276Z,-0.40
2018-03-22T07:21:22.723Z,-0.40
2018-03-22T07:23:50.173Z,-0.30
2018-03-22T07:26:17.642Z,-0.30
2018-03-22T07:28:45.100Z,-0.20
2018-03-22T07:31:12.630Z,-0.20
2018-03-22T07:33:40.080Z,-0.10
2018-03-22T07:36:08.330Z,0.00
2018-03-22T07:38:35.797Z,0.00
2018-03-22T07:41:03.261Z,0.00
2018-03-22T07:43:36.368Z,0.00
2018-03-22T07:46:05.091Z,0.10
2018-03-22T07:48:32.547Z,0.10
2018-03-22T07:51:00.044Z,0.10
2018-03-22T07:53:27.501Z,0.10
2018-03-22T07:55:54.964Z,0.10
2018-03-22T07:58:22.415Z,0.00
2018-03-22T08:00:49.874Z,0.00
2018-03-22T08:03:18.229Z,0.20
2018-03-22T08:05:45.715Z,0.10
2018-03-22T08:08:13.941Z,0.40
2018-03-22T08:10:41.412Z,0.30
2018-03-22T08:13:08.864Z,0.30
2018-03-22T08:15:36.332Z,0.50
2018-03-22T08:18:03.779Z,0.60
2018-03-22T08:20:31.260Z,0.70
2018-03-22T08:22:58.703Z,0.80
2018-03-22T08:25:26.159Z,0.90
2018-03-22T08:27:53.641Z,0.90
2018-03-22T08:30:21.104Z,1.00
2018-03-22T08:32:48.555Z,1.10
2018-03-22T08:35:16.022Z,1.30
2018-03-22T08:37:45.002Z,1.50
2018-03-22T08:40:12.468Z,1.50
2018-03-22T08:42:40.021Z,1.60
2018-03-22T08:45:07.475Z,1.70
2018-03-22T08:47:34.931Z,1.80
2018-03-22T08:50:02.397Z,1.90
2018-03-22T08:52:29.839Z,2.10
2018-03-22T08:54:57.298Z,2.20
2018-03-22T08:57:24.774Z,2.30
2018-03-22T08:59:52.224Z,2.40
2018-03-22T09:02:19.776Z,2.60
2018-03-22T09:04:47.248Z,2.60
2018-03-22T09:07:14.712Z,2.70
2018-03-22T09:09:42.155Z,2.70
2018-03-22T09:12:09.604Z,2.70
2018-03-22T09:14:37.052Z,2.80
2018-03-22T09:17:04.500Z,2.90
2018-03-22T09:19:31.961Z,3.10
2018-03-22T09:21:59.423Z,3.20
2018-03-22T09:24:26.856Z,3.50
2018-03-22T09:26:59.940Z,3.60
2018-03-22T09:29:27.384Z,3.70
2018-03-22T09:31:54.832Z,3.70
2018-03-22T09:34:22.298Z,3.80
2018-03-22T09:36:51.102Z,3.90
2018-03-22T09:39:18.566Z,3.80
2018-03-22T09:41:46.017Z,4.00
2018-03-22T09:44:13.478Z,4.00
2018-03-22T09:46:40.935Z,4.20
2018-03-22T09:49:08.839Z,4.20
2018-03-22T09:51:36.273Z,4.20
2018-03-22T09:54:03.742Z,4.20
2018-03-22T09:56:31.193Z,4.10
2018-03-22T09:58:58.657Z,4.20
2018-03-22T10:01:26.104Z,4.10
2018-03-22T10:03:53.559Z,4.00
2018-03-22T10:06:21.014Z,4.10
2018-03-22T10:08:48.452Z,4.10
2018-03-22T10:11:15.921Z,4.20
2018-03-22T10:13:43.372Z,4.10
2018-03-22T10:16:10.818Z,4.00
2018-03-22T10:18:38.276Z,4.10
2018-03-22T10:21:05.729Z,4.20
2018-03-22T10:23:33.193Z,4.20
2018-03-22T10:26:00.643Z,4.20
2018-03-22T10:28:28.083Z,4.30
2018-03-22T10:30:56.318Z,4.40
2018-03-22T10:33:23.774Z,4.40
2018-03-22T10:35:51.236Z,4.50
2018-03-22T10:38:18.664Z,4.40
2018-03-22T10:40:46.141Z,4.40
2018-03-22T10:43:15.165Z,4.50
2018-03-22T10:45:42.663Z,4.50
2018-03-22T10:48:10.115Z,4.60
2018-03-22T10:50:37.560Z,4.50
2018-03-22T10:53:04.999Z,4.50
2018-03-22T10:55:33.235Z,4.50
2018-03-22T10:58:00.673Z,4.40
2018-03-22T11:00:33.903Z,4.40
2018-03-22T11:03:06.931Z,4.40
2018-03-22T11:05:35.161Z,4.40
2018-03-22T11:08:02.603Z,4.40
2018-03-22T11:10:30.076Z,4.40
2018-03-22T11:12:57.537Z,4.40
2018-03-22T11:15:25.008Z,4.50
2018-03-22T11:17:52.478Z,4.50
2018-03-22T11:20:20.697Z,4.50
2018-03-22T11:22:48.152Z,4.50
2018-03-22T11:25:15.617Z,4.60
2018-03-22T11:27:43.102Z,4.70
2018-03-22T11:30:10.564Z,4.70
2018-03-22T11:32:38.004Z,4.60
2018-03-22T11:35:05.452Z,4.70
2018-03-22T11:37:32.944Z,4.60
2018-03-22T11:40:00.367Z,4.50
2018-03-22T11:42:27.830Z,4.40
2018-03-22T11:44:55.300Z,4.40
2018-03-22T11:47:22.774Z,4.50
2018-03-22T11:49:50.997Z,4.30
2018-03-22T11:52:18.456Z,4.30
2018-03-22T11:54:45.928Z,4.20
2018-03-22T11:57:13.388Z,4.00
2018-03-22T11:59:40.847Z,4.00
2018-03-22T12:02:08.315Z,4.00
2018-03-22T12:04:35.766Z,4.00
2018-03-22T12:07:03.226Z,3.90
2018-03-22T12:09:30.780Z,4.00
2018-03-22T12:11:58.232Z,4.10
2018-03-22T12:14:25.733Z,4.00
2018-03-22T12:16:53.157Z,4.00
2018-03-22T12:19:20.619Z,4.00
2018-03-22T12:21:48.085Z,4.00
2018-03-22T12:24:15.532Z,3.90
2018-03-22T12:26:43.023Z,3.90
2018-03-22T12:29:11.252Z,3.70
2018-03-22T12:31:38.715Z,3.60
2018-03-22T12:34:06.163Z,3.70
2018-03-22T12:36:33.636Z,3.70
2018-03-22T12:39:01.089Z,3.80
2018-03-22T12:41:28.541Z,3.90
2018-03-22T12:43:56.007Z,4.00
2018-03-22T12:46:23.453Z,3.90
2018-03-22T12:48:50.933Z,3.80
2018-03-22T12:51:18.384Z,3.80
2018-03-22T12:53:45.843Z,3.80
2018-03-22T12:56:13.291Z,3.70
2018-03-22T12:58:40.758Z,3.60
2018-03-22T13:01:08.209Z,3.60
2018-03-22T13:03:35.675Z,3.70
2018-03-22T13:06:03.119Z,3.70
2018-03-22T13:08:30.584Z,3.60
2018-03-22T13:10:58.146Z,3.60
2018-03-22T13:13:25.629Z,3.70
2018-03-22T13:15:53.852Z,3.70
2018-03-22T13:18:21.313Z,3.70
2018-03-22T13:20:48.781Z,3.70
2018-03-22T13:23:16.253Z,3.90
2018-03-22T13:25:43.704Z,3.80
2018-03-22T13:28:11.160Z,3.80
2018-03-22T13:30:38.613Z,3.80
2018-03-22T13:33:06.080Z,3.60
2018-03-22T13:35:33.560Z,3.60
2018-03-22T13:38:01.008Z,3.50
2018-03-22T13:40:29.252Z,3.50
2018-03-22T13:42:56.713Z,3.50
2018-03-22T13:45:24.186Z,3.60
2018-03-22T13:47:53.154Z,3.60
2018-03-22T13:50:20.636Z,3.60
2018-03-22T13:52:48.145Z,3.40
2018-03-22T13:55:15.607Z,3.50
2018-03-22T13:57:43.057Z,3.60
2018-03-22T14:00:10.528Z,3.50
2018-03-22T14:02:37.997Z,3.50
2018-03-22T14:05:05.440Z,3.60
2018-03-22T14:07:32.910Z,3.50
2018-03-22T14:10:00.362Z,3.30
2018-03-22T14:12:27.845Z,3.10
2018-03-22T14:14:55.330Z,3.20
2018-03-22T14:17:23.549Z,3.00
2018-03-22T14:19:50.999Z,3.00
2018-03-22T14:22:18.448Z,3.00
2018-03-22T14:24:45.916Z,3.20
2018-03-22T14:27:13.361Z,3.20
2018-03-22T14:29:40.844Z,3.10
2018-03-22T14:32:08.292Z,3.10
2018-03-22T14:34:35.757Z,3.10
2018-03-22T14:37:03.206Z,3.00
2018-03-22T14:39:30.680Z,3.00
2018-03-22T14:41:58.133Z,3.10
2018-03-22T14:44:25.628Z,3.00
2018-03-22T14:46:53.816Z,2.90
2018-03-22T14:49:22.031Z,2.80
2018-03-22T14:51:49.502Z,2.80
2018-03-22T14:54:16.963Z,2.70
2018-03-22T14:56:44.430Z,2.80
2018-03-22T14:59:11.890Z,2.80
2018-03-22T15:01:39.360Z,2.80
2018-03-22T15:04:06.803Z,2.80
2018-03-22T15:06:34.277Z,2.80
2018-03-22T15:09:02.509Z,2.80
2018-03-22T15:11:29.966Z,2.80
2018-03-22T15:13:57.451Z,2.80
2018-03-22T15:16:24.929Z,2.80
2018-03-22T15:18:52.372Z,2.90
2018-03-22T15:21:19.833Z,2.90
2018-03-22T15:23:47.301Z,2.90
2018-03-22T15:26:15.530Z,2.90
2018-03-22T15:28:42.970Z,2.90
2018-03-22T15:31:10.456Z,2.80
2018-03-22T15:33:37.912Z,2.90
2018-03-22T15:36:05.393Z,2.80
2018-03-22T15:38:32.845Z,2.80
2018-03-22T15:41:00.334Z,2.90
2018-03-22T15:43:28.552Z,2.80
2018-03-22T15:45:56.009Z,2.80
2018-03-22T15:48:23.480Z,2.80
2018-03-22T15:50:50.932Z,2.80
2018-03-22T15:53:18.406Z,2.90
2018-03-22T15:55:45.867Z,2.90
2018-03-22T15:58:13.353Z,2.90
2018-03-22T16:00:41.567Z,2.70
2018-03-22T16:03:09.039Z,2.70
2018-03-22T16:05:36.504Z,2.60
2018-03-22T16:08:03.966Z,2.60
2018-03-22T16:10:31.413Z,2.50
2018-03-22T16:12:58.872Z,2.50
2018-03-22T16:15:27.963Z,2.40
2018-03-22T16:17:55.442Z,2.40
2018-03-22T16:20:22.900Z,2.40
2018-03-22T16:22:51.127Z,2.40
2018-03-22T16:25:18.581Z,2.40
2018-03-22T16:27:46.067Z,2.40
2018-03-22T16:30:13.544Z,2.30
2018-03-22T16:32:41.009Z,2.30
2018-03-22T16:35:09.279Z,2.20
2018-03-22T16:37:36.732Z,2.20
2018-03-22T16:40:04.211Z,2.20
2018-03-22T16:42:32.457Z,2.10
2018-03-22T16:44:59.908Z,2.10
2018-03-22T16:47:27.372Z,2.10
2018-03-22T16:49:54.837Z,2.00
2018-03-22T16:52:22.289Z,2.00
2018-03-22T16:54:49.753Z,2.00
2018-03-22T16:57:17.204Z,2.10
2018-03-22T16:59:44.692Z,2.00
2018-03-22T17:02:12.901Z,2.10
2018-03-22T17:04:40.381Z,2.00
2018-03-22T17:07:07.853Z,2.00
2018-03-22T17:09:35.334Z,2.10
2018-03-22T17:12:03.567Z,2.00
2018-03-22T17:14:31.023Z,2.00
2018-03-22T17:16:58.480Z,2.00
2018-03-22T17:19:25.944Z,1.90
2018-03-22T17:21:53.415Z,1.90
2018-03-22T17:24:20.874Z,2.00
2018-03-22T17:26:48.333Z,2.00
2018-03-22T17:29:15.797Z,1.90
2018-03-22T17:31:43.254Z,2.00
2018-03-22T17:34:10.722Z,1.90
2018-03-22T17:36:38.950Z,1.90
2018-03-22T17:39:06.493Z,1.90
2018-03-22T17:41:33.925Z,1.90
2018-03-22T17:44:02.147Z,1.90
2018-03-22T17:46:29.592Z,1.80
2018-03-22T17:48:57.825Z,1.70
2018-03-22T17:51:26.061Z,1.70
2018-03-22T17:53:53.521Z,1.70
2018-03-22T17:56:21.005Z,1.70
2018-03-22T17:58:49.264Z,1.60
2018-03-22T18:01:16.717Z,1.60
2018-03-22T18:03:44.184Z,1.70
2018-03-22T18:06:11.643Z,1.70
2018-03-22T18:08:39.109Z,1.70
2018-03-22T18:11:06.576Z,1.70
2018-03-22T18:13:34.816Z,1.60
2018-03-22T18:16:02.297Z,1.60
2018-03-22T18:18:29.760Z,1.60
2018-03-22T18:20:58.016Z,1.60
2018-03-22T18:23:25.481Z,1.70
2018-03-22T18:25:52.933Z,1.70
2018-03-22T18:28:20.393Z,1.60
2018-03-22T18:30:47.851Z,1.70
2018-03-22T18:33:15.404Z,1.70
2018-03-22T18:35:42.870Z,1.70
2018-03-22T18:38:10.432Z,1.80
2018-03-22T18:40:37.911Z,1.70
2018-03-22T18:43:06.152Z,1.70
2018-03-22T18:45:33.634Z,1.70
2018-03-22T18:48:01.120Z,1.80
2018-03-22T18:50:28.617Z,1.80
2018-03-22T18:52:56.098Z,1.80
2018-03-22T18:55:23.572Z,1.70
2018-03-22T18:57:51.821Z,1.80
2018-03-22T19:00:19.293Z,1.80
2018-03-22T19:02:46.773Z,1.80
2018-03-22T19:05:15.050Z,1.80
2018-03-22T19:07:42.554Z,1.80
2018-03-22T19:10:10.062Z,1.80
2018-03-22T19:12:38.300Z,1.80
2018-03-22T19:15:05.796Z,1.80
2018-03-22T19:17:34.021Z,1.80
2018-03-22T19:20:01.493Z,1.80
2018-03-22T19:22:28.984Z,1.80
2018-03-22T19:24:57.218Z,1.80
2018-03-22T19:27:24.678Z,1.80
2018-03-22T19:29:52.157Z,1.80
2018-03-22T19:32:19.634Z,1.80
2018-03-22T19:34:47.871Z,1.80
2018-03-22T19:37:17.073Z,1.80
2018-03-22T19:39:44.557Z,1.80
2018-03-22T19:42:12.031Z,1.80
2018-03-22T19:44:40.279Z,1.80
2018-03-22T19:47:07.764Z,1.80
2018-03-22T19:49:36.008Z,1.70
2018-03-22T19:52:03.485Z,1.70
2018-03-22T19:54:31.727Z,1.70
2018-03-22T19:56:59.215Z,1.70
2018-03-22T19:59:26.694Z,1.70
2018-03-22T20:01:54.184Z,1.70
2018-03-22T20:04:21.648Z,1.70
2018-03-22T20:06:49.124Z,1.70
2018-03-22T20:09:16.695Z,1.70
2018-03-22T20:11:44.173Z,1.70
2018-03-22T20:14:12.397Z,1.70
2018-03-22T20:16:39.874Z,1.70
2018-03-22T20:19:07.337Z,1.70
2018-03-22T20:21:35.580Z,1.80
2018-03-22T20:24:03.053Z,1.80
2018-03-22T20:26:30.519Z,1.80
2018-03-22T20:28:59.114Z,1.80
2018-03-22T20:31:26.590Z,1.80
2018-03-22T20:33:54.849Z,1.80
2018-03-22T20:36:22.313Z,1.80
2018-03-22T20:38:49.792Z,1.70
2018-03-22T20:41:41.088Z,1.70
2018-03-22T20:44:08.626Z,1.70
2018-03-22T20:46:36.111Z,1.60
2018-03-22T20:49:04.355Z,1.60
2018-03-22T20:51:31.812Z,1.60
2018-03-22T20:53:59.304Z,1.60
2018-03-22T20:56:27.698Z,1.60
2018-03-22T20:58:55.061Z,1.60
2018-03-22T21:01:22.495Z,1.60
2018-03-22T21:03:50.755Z,1.70
2018-03-22T21:06:18.226Z,1.70
2018-03-22T21:08:46.464Z,1.70
2018-03-22T21:11:15.160Z,1.70
2018-03-22T21:13:42.633Z,1.60
2018-03-22T21:16:10.097Z,1.70
2018-03-22T21:18:38.344Z,1.70
2018-03-22T21:21:05.812Z,1.70
2018-03-22T21:23:33.284Z,1.70
2018-03-22T21:26:00.753Z,1.70
2018-03-22T21:28:29.015Z,1.70
2018-03-22T21:30:56.466Z,1.70
2018-03-22T21:33:23.915Z,1.70
2018-03-22T21:35:51.373Z,1.70
2018-03-22T21:38:18.833Z,1.70
2018-03-22T21:40:46.298Z,1.70
2018-03-22T21:43:14.528Z,1.70
2018-03-22T21:45:41.993Z,1.70
2018-03-22T21:48:09.444Z,1.70
2018-03-22T21:50:47.862Z,1.70
2018-03-22T21:53:15.311Z,1.70
2018-03-22T21:55:42.779Z,1.60
2018-03-22T21:58:10.243Z,1.70
2018-03-22T22:00:37.697Z,1.60
2018-03-22T22:03:05.156Z,1.70
2018-03-22T22:05:32.822Z,1.60
2018-03-22T22:08:00.272Z,1.60
2018-03-22T22:10:27.743Z,1.60
2018-03-22T22:12:55.392Z,1.60
2018-03-22T22:15:22.880Z,1.60
2018-03-22T22:17:50.326Z,1.60
2018-03-22T22:20:17.794Z,1.60
2018-03-22T22:22:45.252Z,1.60
2018-03-22T22:25:12.716Z,1.70
2018-03-22T22:27:40.948Z,1.60
2018-03-22T22:30:08.423Z,1.60
2018-03-22T22:32:35.871Z,1.60
2018-03-22T22:35:03.333Z,1.60
2018-03-22T22:37:30.811Z,1.60
2018-03-22T22:39:58.260Z,1.60
2018-03-22T22:42:25.713Z,1.60
2018-03-22T22:45:05.852Z,1.60
2018-03-22T22:47:33.317Z,1.60
2018-03-22T22:50:00.768Z,1.60
2018-03-22T22:52:28.220Z,1.60
2018-03-22T22:54:55.664Z,1.60
2018-03-22T22:57:23.134Z,1.60
2018-03-22T22:59:50.572Z,1.60
2018-03-22T23:02:18.030Z,1.60
2018-03-22T23:04:45.481Z,1.70
2018-03-22T23:07:12.928Z,1.70
2018-03-22T23:09:40.376Z,1.70
2018-03-22T23:12:08.601Z,1.70
2018-03-22T23:14:36.064Z,1.70
2018-03-22T23:17:03.514Z,1.70
2018-03-22T23:19:30.972Z,1.70
2018-03-22T23:21:58.450Z,1.70
2018-03-22T23:24:27.429Z,1.70
2018-03-22T23:26:54.901Z,1.70
2018-03-22T23:29:22.336Z,1.70
2018-03-22T23:31:49.812Z,1.70
2018-03-22T23:34:17.274Z,1.70
2018-03-22T23:36:44.745Z,1.80
2018-03-22T23:39:12.954Z,1.80
2018-03-22T23:41:40.403Z,1.70
2018-03-22T23:44:07.871Z,1.80
2018-03-22T23:46:35.337Z,1.80
2018-03-22T23:49:02.784Z,1.80
2018-03-22T23:51:30.224Z,1.80
2018-03-22T23:53:58.442Z,1.80
2018-03-22T23:56:25.899Z,1.70
2018-03-22T23:58:53.373Z,1.70
